createdAt,value
2023-12-26T00:01:34.336Z,13.15
2023-12-26T00:06:38.247Z,11.65
2023-12-26T00:11:46.427Z,12.50
2023-12-26T00:16:50.285Z,13.38
2023-12-26T00:21:54.360Z,12.38
2023-12-26T00:26:58.793Z,13.02
2023-12-26T00:32:03.112Z,13.00
2023-12-26T00:37:07.015Z,11.93
2023-12-26T00:42:12.880Z,13.57
2023-12-26T00:47:17.148Z,11.60
2023-12-26T00:52:21.068Z,12.38
2023-12-26T00:57:25.026Z,12.82
2023-12-26T01:02:28.967Z,14.50
2023-12-26T01:07:32.810Z,12.23
2023-12-26T01:12:37.349Z,12.63
2023-12-26T01:17:41.505Z,10.98
2023-12-26T01:22:45.685Z,11.23
2023-12-26T01:27:49.766Z,11.82
2023-12-26T01:32:54.457Z,11.02
2023-12-26T01:37:58.625Z,11.32
2023-12-26T01:43:02.661Z,11.85
2023-12-26T01:48:08.838Z,11.00
2023-12-26T01:53:13.737Z,12.10
2023-12-26T01:58:17.719Z,10.93
2023-12-26T02:03:22.272Z,11.20
2023-12-26T02:08:26.657Z,11.45
2023-12-26T02:13:31.385Z,10.80
2023-12-26T02:18:36.622Z,10.23
2023-12-26T02:24:01.319Z,9.25
2023-12-26T02:29:08.150Z,9.73
2023-12-26T02:34:12.503Z,10.37
2023-12-26T02:39:17.187Z,10.98
2023-12-26T02:44:21.246Z,10.90
2023-12-26T02:49:25.435Z,11.27
2023-12-26T02:54:29.216Z,9.00
2023-12-26T02:59:33.251Z,10.27
2023-12-26T03:04:37.346Z,10.27
2023-12-26T03:09:41.514Z,10.77
2023-12-26T03:14:45.835Z,10.80
2023-12-26T03:19:49.842Z,11.73
2023-12-26T03:24:53.758Z,11.25
2023-12-26T03:29:57.932Z,11.90
2023-12-26T03:35:04.331Z,11.73
2023-12-26T03:40:09.322Z,11.48
2023-12-26T03:45:13.458Z,10.40
2023-12-26T03:50:18.091Z,11.23
2023-12-26T03:55:22.254Z,10.18
2023-12-26T04:00:26.545Z,11.55
2023-12-26T04:05:30.492Z,9.80
2023-12-26T04:10:34.655Z,10.40
2023-12-26T04:15:38.525Z,10.98
2023-12-26T04:20:42.710Z,11.48
2023-12-26T04:25:47.902Z,11.10
2023-12-26T04:30:52.096Z,11.93
2023-12-26T04:35:56.300Z,11.25
2023-12-26T04:41:40.760Z,11.20
2023-12-26T04:46:44.965Z,10.75
2023-12-26T04:51:48.860Z,10.50
2023-12-26T04:56:52.836Z,10.35
2023-12-26T05:01:56.895Z,10.20
2023-12-26T05:07:01.459Z,12.15
2023-12-26T05:12:06.868Z,11.40
2023-12-26T05:17:10.714Z,10.50
2023-12-26T05:22:14.675Z,11.45
2023-12-26T05:27:19.500Z,11.70
2023-12-26T05:32:24.130Z,13.20
2023-12-26T05:37:28.194Z,11.73
2023-12-26T05:42:32.385Z,12.60
2023-12-26T05:47:36.530Z,12.27
2023-12-26T05:52:40.568Z,12.80
2023-12-26T05:57:44.601Z,11.65
2023-12-26T06:02:49.345Z,12.88
2023-12-26T06:07:53.908Z,11.98
2023-12-26T06:12:58.266Z,11.45
2023-12-26T06:18:02.852Z,13.25
2023-12-26T06:23:08.053Z,13.52
2023-12-26T06:28:13.402Z,14.38
2023-12-26T06:33:17.592Z,14.27
2023-12-26T06:38:21.875Z,14.23
2023-12-26T06:43:26.734Z,14.30
2023-12-26T06:48:30.628Z,14.50
2023-12-26T06:53:34.922Z,14.30
2023-12-26T06:58:39.694Z,13.88
2023-12-26T07:03:43.843Z,13.93
2023-12-26T07:08:48.120Z,13.30
2023-12-26T07:13:52.145Z,14.30
2023-12-26T07:18:56.151Z,16.25
2023-12-26T07:24:00.271Z,15.98
2023-12-26T07:29:04.172Z,15.93
2023-12-26T07:34:10.247Z,18.38
2023-12-26T07:39:14.491Z,16.67
2023-12-26T07:44:18.385Z,14.25
2023-12-26T07:49:24.661Z,15.27
2023-12-26T07:54:28.516Z,13.77
2023-12-26T07:59:32.486Z,13.63
2023-12-26T08:04:36.499Z,13.60
2023-12-26T08:09:40.278Z,14.05
2023-12-26T08:14:44.203Z,15.43
2023-12-26T08:19:48.106Z,15.80
2023-12-26T08:24:52.035Z,19.73
2023-12-26T08:29:56.015Z,17.40
2023-12-26T08:35:01.155Z,17.63
2023-12-26T08:40:08.252Z,18.52
2023-12-26T08:45:12.192Z,15.50
2023-12-26T08:50:16.583Z,15.55
2023-12-26T08:55:21.354Z,17.40
2023-12-26T09:00:25.426Z,14.75
2023-12-26T09:05:29.269Z,14.40
2023-12-26T09:10:33.244Z,25.50
2023-12-26T09:15:37.173Z,16.13
2023-12-26T09:20:41.439Z,15.75
2023-12-26T09:25:45.513Z,15.95
2023-12-26T09:30:49.558Z,14.32
2023-12-26T09:35:53.716Z,15.68
2023-12-26T09:40:57.740Z,15.02
2023-12-26T09:46:03.167Z,17.77
2023-12-26T09:51:13.945Z,15.45
2023-12-26T09:56:18.108Z,14.63
2023-12-26T10:01:23.554Z,15.65
2023-12-26T10:06:27.949Z,16.48
2023-12-26T10:11:34.766Z,15.10
2023-12-26T10:16:38.687Z,15.38
2023-12-26T10:21:42.980Z,15.63
2023-12-26T10:26:48.200Z,16.95
2023-12-26T10:31:52.283Z,17.63
2023-12-26T10:36:57.002Z,15.32
2023-12-26T10:42:03.197Z,17.73
2023-12-26T10:47:07.955Z,18.38
2023-12-26T10:52:14.930Z,19.85
2023-12-26T10:57:19.816Z,17.33
2023-12-26T11:03:19.671Z,18.20
2023-12-26T11:09:37.497Z,18.65
2023-12-26T11:15:55.627Z,18.63
2023-12-26T11:22:19.619Z,18.40
2023-12-26T11:28:44.889Z,19.15
2023-12-26T11:35:09.596Z,19.75
2023-12-26T11:41:33.706Z,18.17
2023-12-26T11:47:58.054Z,18.60
2023-12-26T11:54:22.740Z,18.80
2023-12-26T12:00:46.809Z,19.95
2023-12-26T12:07:11.819Z,18.88
2023-12-26T12:13:36.715Z,18.70
2023-12-26T12:20:00.880Z,20.08
2023-12-26T12:26:24.625Z,19.70
2023-12-26T12:33:01.906Z,20.65
2023-12-26T12:39:38.895Z,106.60
2023-12-26T12:46:15.849Z,50.42
2023-12-26T12:52:53.799Z,31.27
2023-12-26T12:59:30.572Z,21.30
2023-12-26T13:06:06.995Z,35.50
2023-12-26T13:12:43.724Z,87.85
2023-12-26T13:19:21.953Z,39.22
2023-12-26T13:25:58.791Z,28.67
2023-12-26T13:32:35.935Z,20.05
2023-12-26T13:39:12.786Z,20.08
2023-12-26T13:45:50.733Z,20.63
2023-12-26T13:52:04.943Z,21.63
2023-12-26T13:57:45.775Z,20.95
2023-12-26T14:03:28.795Z,22.23
2023-12-26T14:09:09.751Z,19.65
2023-12-26T14:14:50.792Z,20.00
2023-12-26T14:20:31.961Z,16.63
2023-12-26T14:26:12.775Z,16.35
2023-12-26T14:31:53.816Z,16.92
2023-12-26T14:37:34.800Z,13.75
2023-12-26T14:43:15.887Z,12.25
2023-12-26T14:48:56.627Z,15.80
2023-12-26T14:54:37.581Z,12.52
2023-12-26T15:00:18.636Z,13.23
2023-12-26T15:05:22.812Z,12.73
2023-12-26T15:10:26.833Z,13.32
2023-12-26T15:15:31.243Z,14.05
2023-12-26T15:20:35.729Z,13.07
2023-12-26T15:25:39.710Z,12.82
2023-12-26T15:30:43.833Z,12.35
2023-12-26T15:35:48.637Z,11.68
2023-12-26T15:40:52.485Z,12.35
2023-12-26T15:45:56.964Z,13.18
2023-12-26T15:51:00.781Z,12.75
2023-12-26T15:56:05.128Z,12.57
2023-12-26T16:01:10.094Z,12.10
2023-12-26T16:06:20.856Z,11.73
2023-12-26T16:11:24.980Z,12.68
2023-12-26T16:16:29.122Z,11.73
2023-12-26T16:21:33.182Z,12.48
2023-12-26T16:26:44.447Z,13.45
2023-12-26T16:31:48.944Z,10.40
2023-12-26T16:36:52.925Z,10.23
2023-12-26T16:42:11.144Z,10.80
2023-12-26T16:47:17.839Z,10.95
2023-12-26T16:52:22.045Z,9.18
2023-12-26T16:57:29.032Z,10.45
2023-12-26T17:02:34.129Z,8.48
2023-12-26T17:07:39.067Z,7.68
2023-12-26T17:12:43.124Z,6.88
2023-12-26T17:17:47.284Z,6.85
2023-12-26T17:22:51.026Z,5.63
2023-12-26T17:27:55.151Z,5.50
2023-12-26T17:32:59.688Z,4.40
2023-12-26T17:38:03.844Z,4.05
2023-12-26T17:43:07.804Z,3.97
2023-12-26T17:48:12.126Z,3.80
2023-12-26T17:53:16.295Z,3.58
2023-12-26T17:58:20.165Z,3.67
2023-12-26T18:03:25.041Z,3.42
2023-12-26T18:08:30.056Z,3.65
2023-12-26T18:13:34.120Z,3.42
2023-12-26T18:18:38.365Z,3.53
2023-12-26T18:23:42.418Z,3.15
2023-12-26T18:28:46.344Z,3.83
2023-12-26T18:33:51.012Z,3.63
2023-12-26T18:38:55.024Z,3.55
2023-12-26T18:43:58.738Z,3.47
2023-12-26T18:49:03.038Z,4.10
2023-12-26T18:54:07.166Z,3.17
2023-12-26T18:59:11.890Z,3.17
2023-12-26T19:04:16.268Z,2.90
2023-12-26T19:09:20.392Z,2.70
2023-12-26T19:14:24.618Z,2.70
2023-12-26T19:19:28.857Z,2.20
2023-12-26T19:24:32.945Z,3.17
2023-12-26T19:29:36.994Z,2.85
2023-12-26T19:34:40.887Z,2.80
2023-12-26T19:39:45.119Z,2.95
2023-12-26T19:44:49.097Z,3.10
2023-12-26T19:49:54.551Z,2.90
2023-12-26T19:54:58.694Z,2.58
2023-12-26T20:00:02.601Z,2.78
2023-12-26T20:05:10.726Z,2.97
2023-12-26T20:10:15.404Z,3.10
2023-12-26T20:15:19.478Z,2.97
2023-12-26T20:20:23.451Z,2.75
2023-12-26T20:25:27.351Z,3.13
2023-12-26T20:30:31.107Z,2.50
2023-12-26T20:35:35.221Z,2.70
2023-12-26T20:40:38.905Z,3.00
2023-12-26T20:45:42.809Z,3.00
2023-12-26T20:50:46.814Z,2.78
2023-12-26T20:55:53.117Z,2.70
2023-12-26T21:00:57.125Z,2.72
2023-12-26T21:06:01.388Z,2.40
2023-12-26T21:11:05.714Z,2.80
2023-12-26T21:16:17.767Z,2.45
2023-12-26T21:21:22.232Z,3.13
2023-12-26T21:26:29.767Z,2.70
2023-12-26T21:31:33.449Z,3.17
2023-12-26T21:36:37.453Z,2.40
2023-12-26T21:41:44.197Z,2.70
2023-12-26T21:46:48.260Z,2.53
2023-12-26T21:51:52.253Z,2.90
2023-12-26T21:56:56.050Z,2.38
2023-12-26T22:02:00.171Z,2.70
2023-12-26T22:07:04.873Z,2.47
2023-12-26T22:12:10.925Z,3.65
2023-12-26T22:17:16.630Z,2.58
2023-12-26T22:22:20.611Z,3.05
2023-12-26T22:27:24.939Z,2.63
2023-12-26T22:32:32.240Z,3.10
2023-12-26T22:37:36.166Z,3.05
2023-12-26T22:42:39.994Z,2.35
2023-12-26T22:47:43.950Z,3.13
2023-12-26T22:52:47.840Z,3.15
2023-12-26T22:57:51.868Z,3.08
2023-12-26T23:02:55.838Z,2.97
2023-12-26T23:08:00.337Z,2.40
2023-12-26T23:13:06.294Z,3.30
2023-12-26T23:18:10.918Z,3.08
2023-12-26T23:23:15.144Z,2.67
2023-12-26T23:28:19.103Z,2.90
2023-12-26T23:33:23.234Z,2.92
2023-12-26T23:38:27.112Z,3.10
2023-12-26T23:43:31.720Z,2.88
2023-12-26T23:48:35.910Z,2.97
2023-12-26T23:53:39.874Z,3.25
2023-12-26T23:58:43.678Z,3.22
